sensor_id;sensor_type;location;lat;lon;timestamp;pressure;altitude;pressure_sealevel;temperature;humidity
10712;BME280;5407;51.234;6.804;2023-04-10T00:01:05;101718.13;;;24.65;37.80
10712;BME280;5407;51.234;6.804;2023-04-10T00:03:32;101717.34;;;24.64;37.49
10712;BME280;5407;51.234;6.804;2023-04-10T00:05:59;101713.81;;;24.64;37.53
10712;BME280;5407;51.234;6.804;2023-04-10T00:08:26;101715.78;;;24.63;37.75
10712;BME280;5407;51.234;6.804;2023-04-10T00:10:53;101705.53;;;24.64;37.75
10712;BME280;5407;51.234;6.804;2023-04-10T00:13:22;101703.97;;;24.63;37.66
10712;BME280;5407;51.234;6.804;2023-04-10T00:15:49;101698.84;;;24.61;37.69
10712;BME280;5407;51.234;6.804;2023-04-10T00:18:16;101690.56;;;24.61;37.86
10712;BME280;5407;51.234;6.804;2023-04-10T00:20:43;101691.38;;;24.62;37.57
10712;BME280;5407;51.234;6.804;2023-04-10T00:23:10;101692.94;;;24.63;37.48
10712;BME280;5407;51.234;6.804;2023-04-10T00:25:37;101692.94;;;24.63;37.54
10712;BME280;5407;51.234;6.804;2023-04-10T00:28:03;101694.50;;;24.64;37.69
10712;BME280;5407;51.234;6.804;2023-04-10T00:30:32;101687.41;;;24.63;37.71
10712;BME280;5407;51.234;6.804;2023-04-10T00:32:59;101686.63;;;24.62;37.84
10712;BME280;5407;51.234;6.804;2023-04-10T00:35:26;101680.72;;;24.60;37.92
10712;BME280;5407;51.234;6.804;2023-04-10T00:37:52;101683.50;;;24.60;37.89
10712;BME280;5407;51.234;6.804;2023-04-10T00:40:21;101681.91;;;24.59;37.65
10712;BME280;5407;51.234;6.804;2023-04-10T00:42:48;101672.44;;;24.60;37.68
10712;BME280;5407;51.234;6.804;2023-04-10T00:45:15;101666.94;;;24.60;37.76
10712;BME280;5407;51.234;6.804;2023-04-10T00:47:43;101669.31;;;24.58;37.87
10712;BME280;5407;51.234;6.804;2023-04-10T00:50:10;101670.13;;;24.59;37.93
10712;BME280;5407;51.234;6.804;2023-04-10T00:52:37;101667.75;;;24.57;37.51
10712;BME280;5407;51.234;6.804;2023-04-10T00:55:04;101663.44;;;24.56;37.57
10712;BME280;5407;51.234;6.804;2023-04-10T00:57:32;101669.34;;;24.55;37.67
10712;BME280;5407;51.234;6.804;2023-04-10T01:00:00;101663.44;;;24.56;37.73
10712;BME280;5407;51.234;6.804;2023-04-10T01:02:27;101652.78;;;24.55;37.70
10712;BME280;5407;51.234;6.804;2023-04-10T01:04:56;101653.59;;;24.55;37.73
10712;BME280;5407;51.234;6.804;2023-04-10T01:07:29;101655.16;;;24.56;37.46
10712;BME280;5407;51.234;6.804;2023-04-10T01:10:05;101657.91;;;24.56;37.62
10712;BME280;5407;51.234;6.804;2023-04-10T01:12:46;101650.41;;;24.57;37.67
10712;BME280;5407;51.234;6.804;2023-04-10T01:15:17;101645.31;;;24.55;37.80
10712;BME280;5407;51.234;6.804;2023-04-10T01:17:51;101642.56;;;24.55;37.48
10712;BME280;5407;51.234;6.804;2023-04-10T01:20:24;101637.03;;;24.55;37.81
10712;BME280;5407;51.234;6.804;2023-04-10T01:23:20;101634.28;;;24.55;37.77
10712;BME280;5407;51.234;6.804;2023-04-10T01:25:55;101635.84;;;24.56;37.80
10712;BME280;5407;51.234;6.804;2023-04-10T01:28:50;101637.00;;;24.59;37.57
10712;BME280;5407;51.234;6.804;2023-04-10T01:31:20;101633.44;;;24.58;37.60
10712;BME280;5407;51.234;6.804;2023-04-10T01:33:56;101643.28;;;24.59;37.88
10712;BME280;5407;51.234;6.804;2023-04-10T01:36:26;101619.66;;;24.58;37.58
10712;BME280;5407;51.234;6.804;2023-04-10T01:38:57;101619.66;;;24.58;37.41
10712;BME280;5407;51.234;6.804;2023-04-10T01:41:25;101622.41;;;24.58;37.64
10712;BME280;5407;51.234;6.804;2023-04-10T01:43:54;101617.28;;;24.57;37.63
10712;BME280;5407;51.234;6.804;2023-04-10T01:46:22;101615.72;;;24.56;37.75
10712;BME280;5407;51.234;6.804;2023-04-10T01:48:52;101611.00;;;24.56;37.43
10712;BME280;5407;51.234;6.804;2023-04-10T01:51:20;101609.44;;;24.55;37.35
10712;BME280;5407;51.234;6.804;2023-04-10T01:53:48;101607.88;;;24.54;37.39
10712;BME280;5407;51.234;6.804;2023-04-10T01:56:22;101614.16;;;24.55;37.45
10712;BME280;5407;51.234;6.804;2023-04-10T01:58:49;101604.75;;;24.52;37.67
10712;BME280;5407;51.234;6.804;2023-04-10T02:01:21;101603.56;;;24.53;37.59
10712;BME280;5407;51.234;6.804;2023-04-10T02:03:48;101604.75;;;24.52;37.53
10712;BME280;5407;51.234;6.804;2023-04-10T02:06:26;101596.13;;;24.50;37.35
10712;BME280;5407;51.234;6.804;2023-04-10T02:08:59;101604.38;;;24.50;37.35
10712;BME280;5407;51.234;6.804;2023-04-10T02:11:40;101602.78;;;24.49;37.33
10712;BME280;5407;51.234;6.804;2023-04-10T02:14:10;101601.63;;;24.50;37.33
10712;BME280;5407;51.234;6.804;2023-04-10T02:16:40;101591.41;;;24.47;37.52
10712;BME280;5407;51.234;6.804;2023-04-10T02:19:09;101581.91;;;24.48;37.62
10712;BME280;5407;51.234;6.804;2023-04-10T02:21:37;101587.44;;;24.48;37.53
10712;BME280;5407;51.234;6.804;2023-04-10T02:24:06;101594.16;;;24.47;37.60
10712;BME280;5407;51.234;6.804;2023-04-10T02:26:43;101589.81;;;24.46;37.53
10712;BME280;5407;51.234;6.804;2023-04-10T02:29:10;101594.16;;;24.47;37.48
10712;BME280;5407;51.234;6.804;2023-04-10T02:31:37;101597.31;;;24.46;37.43
10712;BME280;5407;51.234;6.804;2023-04-10T02:34:05;101597.31;;;24.46;37.62
10712;BME280;5407;51.234;6.804;2023-04-10T02:36:33;101594.56;;;24.46;37.28
10712;BME280;5407;51.234;6.804;2023-04-10T02:39:00;101599.31;;;24.45;37.42
10712;BME280;5407;51.234;6.804;2023-04-10T02:41:27;101595.34;;;24.46;37.56
10712;BME280;5407;51.234;6.804;2023-04-10T02:43:54;101585.50;;;24.45;37.42
10712;BME280;5407;51.234;6.804;2023-04-10T02:46:25;101582.38;;;24.43;37.57
10712;BME280;5407;51.234;6.804;2023-04-10T02:48:52;101589.88;;;24.43;37.67
10712;BME280;5407;51.234;6.804;2023-04-10T02:51:20;101594.97;;;24.44;37.61
10712;BME280;5407;51.234;6.804;2023-04-10T02:53:47;101588.66;;;24.44;37.51
10712;BME280;5407;51.234;6.804;2023-04-10T02:56:24;101583.56;;;24.42;37.57
10712;BME280;5407;51.234;6.804;2023-04-10T02:58:51;101578.81;;;24.43;37.34
10712;BME280;5407;51.234;6.804;2023-04-10T03:01:18;101583.56;;;24.42;37.53
10712;BME280;5407;51.234;6.804;2023-04-10T03:03:47;101579.63;;;24.43;37.58
10712;BME280;5407;51.234;6.804;2023-04-10T03:06:24;101576.88;;;24.43;37.54
10712;BME280;5407;51.234;6.804;2023-04-10T03:08:52;101579.63;;;24.43;37.36
10712;BME280;5407;51.234;6.804;2023-04-10T03:11:19;101572.53;;;24.42;37.51
10712;BME280;5407;51.234;6.804;2023-04-10T03:13:46;101573.31;;;24.43;37.34
10712;BME280;5407;51.234;6.804;2023-04-10T03:16:14;101564.28;;;24.42;37.50
10712;BME280;5407;51.234;6.804;2023-04-10T03:18:42;101555.19;;;24.42;37.39
10712;BME280;5407;51.234;6.804;2023-04-10T03:21:09;101548.91;;;24.41;37.58
10712;BME280;5407;51.234;6.804;2023-04-10T03:23:37;101544.16;;;24.42;37.45
10712;BME280;5407;51.234;6.804;2023-04-10T03:26:04;101546.91;;;24.42;37.50
10712;BME280;5407;51.234;6.804;2023-04-10T03:28:36;101534.31;;;24.41;37.32
10712;BME280;5407;51.234;6.804;2023-04-10T03:31:04;101536.31;;;24.40;37.23
10712;BME280;5407;51.234;6.804;2023-04-10T03:33:34;101530.81;;;24.40;37.60
10712;BME280;5407;51.234;6.804;2023-04-10T03:36:02;101533.56;;;24.40;37.34
10712;BME280;5407;51.234;6.804;2023-04-10T03:38:29;101525.28;;;24.40;37.26
10712;BME280;5407;51.234;6.804;2023-04-10T03:40:57;101531.19;;;24.39;37.61
10712;BME280;5407;51.234;6.804;2023-04-10T03:43:28;101528.44;;;24.39;37.45
10712;BME280;5407;51.234;6.804;2023-04-10T03:45:55;101526.88;;;24.38;37.39
10712;BME280;5407;51.234;6.804;2023-04-10T03:48:23;101522.16;;;24.38;37.61
10712;BME280;5407;51.234;6.804;2023-04-10T03:50:53;101515.84;;;24.38;37.31
10712;BME280;5407;51.234;6.804;2023-04-10T03:53:20;101514.28;;;24.37;37.54
10712;BME280;5407;51.234;6.804;2023-04-10T03:55:47;101511.94;;;24.35;37.36
10712;BME280;5407;51.234;6.804;2023-04-10T03:58:15;101513.53;;;24.36;37.64
10712;BME280;5407;51.234;6.804;2023-04-10T04:00:44;101519.03;;;24.36;37.50
10712;BME280;5407;51.234;6.804;2023-04-10T04:03:19;101513.13;;;24.34;37.30
10712;BME280;5407;51.234;6.804;2023-04-10T04:05:55;101511.94;;;24.35;37.36
10712;BME280;5407;51.234;6.804;2023-04-10T04:08:36;101511.16;;;24.35;37.30
10712;BME280;5407;51.234;6.804;2023-04-10T04:11:29;101517.44;;;24.35;37.50
10712;BME280;5407;51.234;6.804;2023-04-10T04:14:07;101510.38;;;24.34;37.45
10712;BME280;5407;51.234;6.804;2023-04-10T04:16:54;101504.09;;;24.34;37.38
10712;BME280;5407;51.234;6.804;2023-04-10T04:19:51;101514.31;;;24.33;37.29
10712;BME280;5407;51.234;6.804;2023-04-10T04:22:41;101514.31;;;24.33;37.25
10712;BME280;5407;51.234;6.804;2023-04-10T04:25:15;101506.84;;;24.34;37.34
10712;BME280;5407;51.234;6.804;2023-04-10T04:27:46;101514.31;;;24.33;37.28
10712;BME280;5407;51.234;6.804;2023-04-10T04:30:38;101504.47;;;24.32;37.42
10712;BME280;5407;51.234;6.804;2023-04-10T04:33:11;101504.47;;;24.32;37.37
10712;BME280;5407;51.234;6.804;2023-04-10T04:35:55;101501.72;;;24.32;37.21
10712;BME280;5407;51.234;6.804;2023-04-10T04:38:37;101496.22;;;24.32;37.29
10712;BME280;5407;51.234;6.804;2023-04-10T04:41:07;101498.97;;;24.32;37.53
10712;BME280;5407;51.234;6.804;2023-04-10T04:43:37;101495.44;;;24.32;37.33
10712;BME280;5407;51.234;6.804;2023-04-10T04:46:18;101494.66;;;24.31;37.70
10712;BME280;5407;51.234;6.804;2023-04-10T04:49:17;101495.84;;;24.30;37.39
10712;BME280;5407;51.234;6.804;2023-04-10T04:52:02;101487.56;;;24.30;37.68
10712;BME280;5407;51.234;6.804;2023-04-10T04:54:42;101495.84;;;24.30;37.79
10712;BME280;5407;51.234;6.804;2023-04-10T04:57:20;101493.81;;;24.34;38.06
10712;BME280;5407;51.234;6.804;2023-04-10T05:00:06;101493.81;;;24.34;38.17
10712;BME280;5407;51.234;6.804;2023-04-10T05:03:13;101498.56;;;24.34;37.71
10712;BME280;5407;51.234;6.804;2023-04-10T05:05:50;101497.78;;;24.33;38.33
10712;BME280;5407;51.234;6.804;2023-04-10T05:08:37;101500.13;;;24.35;38.77
10712;BME280;5407;51.234;6.804;2023-04-10T05:11:27;101499.28;;;24.38;39.93
10712;BME280;5407;51.234;6.804;2023-04-10T05:14:12;101498.47;;;24.41;41.16
10712;BME280;5407;51.234;6.804;2023-04-10T05:17:05;101500.75;;;24.46;42.21
10712;BME280;5407;51.234;6.804;2023-04-10T05:20:00;101494.84;;;24.47;43.37
10712;BME280;5407;51.234;6.804;2023-04-10T05:22:45;101499.91;;;24.52;42.79
10712;BME280;5407;51.234;6.804;2023-04-10T05:25:38;101492.84;;;24.51;42.68
10712;BME280;5407;51.234;6.804;2023-04-10T05:28:28;101499.91;;;24.52;42.12
10712;BME280;5407;51.234;6.804;2023-04-10T05:31:00;101501.13;;;24.51;41.70
10712;BME280;5407;51.234;6.804;2023-04-10T05:33:46;101503.81;;;24.55;41.35
10712;BME280;5407;51.234;6.804;2023-04-10T05:36:17;101503.81;;;24.55;41.37
10712;BME280;5407;51.234;6.804;2023-04-10T05:39:03;101510.88;;;24.56;41.18
10712;BME280;5407;51.234;6.804;2023-04-10T05:41:56;101504.59;;;24.55;40.92
10712;BME280;5407;51.234;6.804;2023-04-10T05:44:31;101503.03;;;24.54;40.85
10712;BME280;5407;51.234;6.804;2023-04-10T05:47:04;101504.59;;;24.55;40.86
10712;BME280;5407;51.234;6.804;2023-04-10T05:49:37;101497.53;;;24.54;41.04
10712;BME280;5407;51.234;6.804;2023-04-10T05:52:08;101495.97;;;24.53;40.75
10712;BME280;5407;51.234;6.804;2023-04-10T05:54:50;101500.66;;;24.56;40.79
10712;BME280;5407;51.234;6.804;2023-04-10T05:57:37;101498.63;;;24.60;40.48
10712;BME280;5407;51.234;6.804;2023-04-10T06:00:24;101503.78;;;24.58;40.49
10712;BME280;5407;51.234;6.804;2023-04-10T06:03:10;101501.41;;;24.57;40.26
10712;BME280;5407;51.234;6.804;2023-04-10T06:05:47;101499.09;;;24.55;40.08
10712;BME280;5407;51.234;6.804;2023-04-10T06:08:16;101493.97;;;24.54;39.86
10712;BME280;5407;51.234;6.804;2023-04-10T06:10:44;101485.75;;;24.50;39.81
10712;BME280;5407;51.234;6.804;2023-04-10T06:13:11;101485.75;;;24.50;39.77
10712;BME280;5407;51.234;6.804;2023-04-10T06:15:39;101484.16;;;24.49;39.52
10712;BME280;5407;51.234;6.804;2023-04-10T06:18:06;101482.59;;;24.48;39.83
10712;BME280;5407;51.234;6.804;2023-04-10T06:20:36;101481.81;;;24.48;39.59
10712;BME280;5407;51.234;6.804;2023-04-10T06:23:02;101475.53;;;24.47;39.72
10712;BME280;5407;51.234;6.804;2023-04-10T06:25:31;101481.81;;;24.48;39.29
10712;BME280;5407;51.234;6.804;2023-04-10T06:27:59;101479.47;;;24.46;39.63
10712;BME280;5407;51.234;6.804;2023-04-10T06:30:25;101476.72;;;24.46;39.18
10712;BME280;5407;51.234;6.804;2023-04-10T06:32:52;101486.56;;;24.47;39.05
10712;BME280;5407;51.234;6.804;2023-04-10T06:35:19;101485.00;;;24.46;39.17
10712;BME280;5407;51.234;6.804;2023-04-10T06:37:47;101486.19;;;24.45;39.01
10712;BME280;5407;51.234;6.804;2023-04-10T06:40:14;101482.66;;;24.45;39.23
10712;BME280;5407;51.234;6.804;2023-04-10T06:42:42;101469.66;;;24.45;38.88
10712;BME280;5407;51.234;6.804;2023-04-10T06:45:20;101466.09;;;24.45;39.08
10712;BME280;5407;51.234;6.804;2023-04-10T06:47:47;101471.63;;;24.45;38.82
10712;BME280;5407;51.234;6.804;2023-04-10T06:50:14;101470.84;;;24.44;38.96
10712;BME280;5407;51.234;6.804;2023-04-10T06:52:41;101475.56;;;24.44;38.80
10712;BME280;5407;51.234;6.804;2023-04-10T06:55:08;101481.88;;;24.44;38.69
10712;BME280;5407;51.234;6.804;2023-04-10T06:57:35;101476.38;;;24.44;38.81
10712;BME280;5407;51.234;6.804;2023-04-10T07:00:04;101469.28;;;24.43;38.66
10712;BME280;5407;51.234;6.804;2023-04-10T07:02:31;101463.78;;;24.43;38.83
10712;BME280;5407;51.234;6.804;2023-04-10T07:04:57;101476.38;;;24.44;38.68
10712;BME280;5407;51.234;6.804;2023-04-10T07:07:24;101453.94;;;24.42;38.69
10712;BME280;5407;51.234;6.804;2023-04-10T07:09:51;101459.81;;;24.44;38.67
10712;BME280;5407;51.234;6.804;2023-04-10T07:12:18;101466.53;;;24.43;38.41
10712;BME280;5407;51.234;6.804;2023-04-10T07:14:45;101458.25;;;24.43;38.52
10712;BME280;5407;51.234;6.804;2023-04-10T07:17:13;101457.44;;;24.43;38.69
10712;BME280;5407;51.234;6.804;2023-04-10T07:19:40;101452.72;;;24.43;38.47
10712;BME280;5407;51.234;6.804;2023-04-10T07:22:07;101451.16;;;24.42;38.53
10712;BME280;5407;51.234;6.804;2023-04-10T07:24:34;101453.94;;;24.42;38.37
10712;BME280;5407;51.234;6.804;2023-04-10T07:27:00;101449.97;;;24.43;38.34
10712;BME280;5407;51.234;6.804;2023-04-10T07:29:29;101441.69;;;24.43;38.15
10712;BME280;5407;51.234;6.804;2023-04-10T07:31:56;101443.66;;;24.43;38.02
10712;BME280;5407;51.234;6.804;2023-04-10T07:34:25;101446.41;;;24.43;38.30
10712;BME280;5407;51.234;6.804;2023-04-10T07:36:52;101443.66;;;24.43;38.38
10712;BME280;5407;51.234;6.804;2023-04-10T07:39:19;101436.94;;;24.44;38.15
10712;BME280;5407;51.234;6.804;2023-04-10T07:41:45;101436.19;;;24.43;38.23
10712;BME280;5407;51.234;6.804;2023-04-10T07:44:12;101442.91;;;24.42;37.97
10712;BME280;5407;51.234;6.804;2023-04-10T07:46:39;101428.31;;;24.42;38.14
10712;BME280;5407;51.234;6.804;2023-04-10T07:49:06;101427.53;;;24.41;37.98
10712;BME280;5407;51.234;6.804;2023-04-10T07:51:34;101419.28;;;24.41;38.04
10712;BME280;5407;51.234;6.804;2023-04-10T07:54:02;101418.84;;;24.43;38.12
10712;BME280;5407;51.234;6.804;2023-04-10T07:56:29;101407.81;;;24.43;38.19
10712;BME280;5407;51.234;6.804;2023-04-10T07:58:58;101408.59;;;24.43;37.87
10712;BME280;5407;51.234;6.804;2023-04-10T08:01:25;101403.09;;;24.43;38.11
10712;BME280;5407;51.234;6.804;2023-04-10T08:03:52;101398.34;;;24.44;38.08
10712;BME280;5407;51.234;6.804;2023-04-10T08:06:20;101399.13;;;24.44;37.91
10712;BME280;5407;51.234;6.804;2023-04-10T08:08:49;101399.88;;;24.45;37.93
10712;BME280;5407;51.234;6.804;2023-04-10T08:11:24;101395.16;;;24.45;37.72
10712;BME280;5407;51.234;6.804;2023-04-10T08:13:52;101393.59;;;24.44;38.10
10712;BME280;5407;51.234;6.804;2023-04-10T08:16:22;101386.09;;;24.45;37.88
10712;BME280;5407;51.234;6.804;2023-04-10T08:18:49;101385.69;;;24.46;38.02
10712;BME280;5407;51.234;6.804;2023-04-10T08:21:16;101384.13;;;24.45;38.15
10712;BME280;5407;51.234;6.804;2023-04-10T08:23:43;101380.19;;;24.46;37.96
10712;BME280;5407;51.234;6.804;2023-04-10T08:26:12;101372.31;;;24.45;37.80
10712;BME280;5407;51.234;6.804;2023-04-10T08:28:40;101368.34;;;24.46;37.84
10712;BME280;5407;51.234;6.804;2023-04-10T08:31:11;101373.88;;;24.46;38.01
10712;BME280;5407;51.234;6.804;2023-04-10T08:33:38;101379.38;;;24.46;37.98
10712;BME280;5407;51.234;6.804;2023-04-10T08:36:06;101367.22;;;24.43;38.12
10712;BME280;5407;51.234;6.804;2023-04-10T08:38:33;101356.19;;;24.43;38.14
10712;BME280;5407;51.234;6.804;2023-04-10T08:41:00;101362.91;;;24.42;38.03
10712;BME280;5407;51.234;6.804;2023-04-10T08:43:29;101355.84;;;24.41;38.09
10712;BME280;5407;51.234;6.804;2023-04-10T08:45:55;101352.28;;;24.41;38.06
10712;BME280;5407;51.234;6.804;2023-04-10T08:48:34;101347.56;;;24.41;38.04
10712;BME280;5407;51.234;6.804;2023-04-10T08:51:04;101336.09;;;24.43;38.13
10712;BME280;5407;51.234;6.804;2023-04-10T08:53:35;101332.56;;;24.42;37.89
10712;BME280;5407;51.234;6.804;2023-04-10T08:56:06;101332.97;;;24.41;38.14
10712;BME280;5407;51.234;6.804;2023-04-10T08:58:35;101331.00;;;24.41;38.09
10712;BME280;5407;51.234;6.804;2023-04-10T09:01:03;101329.81;;;24.42;38.10
10712;BME280;5407;51.234;6.804;2023-04-10T09:03:31;101321.53;;;24.42;37.68
10712;BME280;5407;51.234;6.804;2023-04-10T09:06:01;101330.53;;;24.46;37.97
10712;BME280;5407;51.234;6.804;2023-04-10T09:08:28;101316.63;;;24.53;37.82
10712;BME280;5407;51.234;6.804;2023-04-10T09:10:54;101318.91;;;24.58;37.92
10712;BME280;5407;51.234;6.804;2023-04-10T09:13:36;101315.31;;;24.61;38.04
10712;BME280;5407;51.234;6.804;2023-04-10T09:16:04;101322.75;;;24.64;37.90
10712;BME280;5407;51.234;6.804;2023-04-10T09:18:44;101319.84;;;24.71;37.51
10712;BME280;5407;51.234;6.804;2023-04-10T09:21:14;101316.69;;;24.73;37.62
10712;BME280;5407;51.234;6.804;2023-04-10T09:23:41;101326.09;;;24.75;37.40
10712;BME280;5407;51.234;6.804;2023-04-10T09:26:22;101315.06;;;24.75;37.82
10712;BME280;5407;51.234;6.804;2023-04-10T09:28:59;101321.78;;;24.74;38.00
10712;BME280;5407;51.234;6.804;2023-04-10T09:31:27;101327.00;;;24.69;38.04
10712;BME280;5407;51.234;6.804;2023-04-10T09:34:06;101329.09;;;24.61;38.19
10712;BME280;5407;51.234;6.804;2023-04-10T09:36:33;101324.78;;;24.60;38.21
10712;BME280;5407;51.234;6.804;2023-04-10T09:39:01;101321.66;;;24.58;38.15
10712;BME280;5407;51.234;6.804;2023-04-10T09:41:28;101314.59;;;24.57;38.24
10712;BME280;5407;51.234;6.804;2023-04-10T09:44:07;101303.97;;;24.56;38.22
10712;BME280;5407;51.234;6.804;2023-04-10T09:46:34;101298.88;;;24.54;38.36
10712;BME280;5407;51.234;6.804;2023-04-10T09:49:01;101303.22;;;24.55;38.12
10712;BME280;5407;51.234;6.804;2023-04-10T09:51:30;101300.44;;;24.55;38.24
10712;BME280;5407;51.234;6.804;2023-04-10T09:53:58;101298.88;;;24.54;38.34
10712;BME280;5407;51.234;6.804;2023-04-10T09:56:25;101294.13;;;24.55;38.32
10712;BME280;5407;51.234;6.804;2023-04-10T09:58:56;101286.66;;;24.55;38.48
10712;BME280;5407;51.234;6.804;2023-04-10T10:01:25;101287.84;;;24.54;38.25
10712;BME280;5407;51.234;6.804;2023-04-10T10:03:55;101278.38;;;24.55;38.25
10712;BME280;5407;51.234;6.804;2023-04-10T10:06:25;101283.88;;;24.55;38.36
10712;BME280;5407;51.234;6.804;2023-04-10T10:08:52;101279.94;;;24.56;38.42
10712;BME280;5407;51.234;6.804;2023-04-10T10:11:21;101274.41;;;24.56;38.42
10712;BME280;5407;51.234;6.804;2023-04-10T10:13:50;101272.81;;;24.59;38.36
10712;BME280;5407;51.234;6.804;2023-04-10T10:16:20;101255.47;;;24.58;38.34
10712;BME280;5407;51.234;6.804;2023-04-10T10:18:54;101262.53;;;24.59;38.18
10712;BME280;5407;51.234;6.804;2023-04-10T10:21:25;101249.09;;;24.61;38.29
10712;BME280;5407;51.234;6.804;2023-04-10T10:23:54;101244.38;;;24.62;38.40
10712;BME280;5407;51.234;6.804;2023-04-10T10:26:22;101237.66;;;24.63;38.12
10712;BME280;5407;51.234;6.804;2023-04-10T10:28:50;101236.44;;;24.64;38.39
10712;BME280;5407;51.234;6.804;2023-04-10T10:31:18;101226.16;;;24.64;38.41
10712;BME280;5407;51.234;6.804;2023-04-10T10:33:46;101223.84;;;24.63;38.60
10712;BME280;5407;51.234;6.804;2023-04-10T10:36:15;101215.13;;;24.64;38.29
10712;BME280;5407;51.234;6.804;2023-04-10T10:38:49;101215.13;;;24.64;38.42
10712;BME280;5407;51.234;6.804;2023-04-10T10:41:24;101198.59;;;24.64;38.57
10712;BME280;5407;51.234;6.804;2023-04-10T10:43:59;101181.19;;;24.67;38.17
10712;BME280;5407;51.234;6.804;2023-04-10T10:46:34;101182.72;;;24.68;38.35
10712;BME280;5407;51.234;6.804;2023-04-10T10:49:04;101169.72;;;24.69;38.41
10712;BME280;5407;51.234;6.804;2023-04-10T10:51:47;101170.09;;;24.71;38.40
10712;BME280;5407;51.234;6.804;2023-04-10T10:54:28;101166.03;;;24.75;38.27
10712;BME280;5407;51.234;6.804;2023-04-10T10:56:56;101168.28;;;24.80;38.05
10712;BME280;5407;51.234;6.804;2023-04-10T10:59:53;101158.41;;;24.83;38.00
10712;BME280;5407;51.234;6.804;2023-04-10T11:02:22;101157.75;;;24.75;32.86
10712;BME280;5407;51.234;6.804;2023-04-10T11:04:49;101149.97;;;24.70;32.04
10712;BME280;5407;51.234;6.804;2023-04-10T11:07:17;101156.00;;;24.65;30.16
10712;BME280;5407;51.234;6.804;2023-04-10T11:09:47;101134.47;;;24.57;30.18
10712;BME280;5407;51.234;6.804;2023-04-10T11:12:14;101127.84;;;24.54;29.27
10712;BME280;5407;51.234;6.804;2023-04-10T11:14:42;101125.50;;;24.53;29.57
10712;BME280;5407;51.234;6.804;2023-04-10T11:17:09;101123.19;;;24.51;28.24
10712;BME280;5407;51.234;6.804;2023-04-10T11:19:57;101129.91;;;24.50;28.36
10712;BME280;5407;51.234;6.804;2023-04-10T11:22:26;101129.50;;;24.48;28.06
10712;BME280;5407;51.234;6.804;2023-04-10T11:24:58;101126.75;;;24.48;29.24
10712;BME280;5407;51.234;6.804;2023-04-10T11:27:47;101118.13;;;24.46;28.67
10712;BME280;5407;51.234;6.804;2023-04-10T11:30:34;101111.47;;;24.44;27.98
10712;BME280;5407;51.234;6.804;2023-04-10T11:33:03;101105.34;;;24.36;27.98
10712;BME280;5407;51.234;6.804;2023-04-10T11:35:31;101092.25;;;24.40;27.45
10712;BME280;5407;51.234;6.804;2023-04-10T11:38:12;101102.50;;;24.40;27.46
10712;BME280;5407;51.234;6.804;2023-04-10T11:40:59;101096.22;;;24.39;27.19
10712;BME280;5407;51.234;6.804;2023-04-10T11:43:29;101084.81;;;24.37;27.51
10712;BME280;5407;51.234;6.804;2023-04-10T11:46:01;101083.28;;;24.36;26.96
10712;BME280;5407;51.234;6.804;2023-04-10T11:48:28;101078.53;;;24.37;27.21
10712;BME280;5407;51.234;6.804;2023-04-10T11:50:55;101079.31;;;24.37;26.89
10712;BME280;5407;51.234;6.804;2023-04-10T11:53:25;101079.78;;;24.32;27.38
10712;BME280;5407;51.234;6.804;2023-04-10T11:55:54;101073.22;;;24.26;27.06
10712;BME280;5407;51.234;6.804;2023-04-10T11:58:26;101076.06;;;24.23;27.42
10712;BME280;5407;51.234;6.804;2023-04-10T12:00:55;101075.63;;;24.24;27.33
10712;BME280;5407;51.234;6.804;2023-04-10T12:03:37;101063.03;;;24.23;27.31
10712;BME280;5407;51.234;6.804;2023-04-10T12:06:09;101059.16;;;24.21;27.51
10712;BME280;5407;51.234;6.804;2023-04-10T12:08:38;101052.09;;;24.20;27.10
10712;BME280;5407;51.234;6.804;2023-04-10T12:11:06;101057.50;;;24.23;27.36
10712;BME280;5407;51.234;6.804;2023-04-10T12:13:34;101050.09;;;24.20;26.79
10712;BME280;5407;51.234;6.804;2023-04-10T12:16:02;101045.38;;;24.21;27.79
10712;BME280;5407;51.234;6.804;2023-04-10T12:18:30;101039.41;;;24.22;28.76
10712;BME280;5407;51.234;6.804;2023-04-10T12:20:57;101052.69;;;24.27;29.26
10712;BME280;5407;51.234;6.804;2023-04-10T12:23:25;101035.31;;;24.30;29.52
10712;BME280;5407;51.234;6.804;2023-04-10T12:26:06;101026.97;;;24.34;30.36
10712;BME280;5407;51.234;6.804;2023-04-10T12:28:34;101026.91;;;24.37;29.98
10712;BME280;5407;51.234;6.804;2023-04-10T12:31:01;101020.53;;;24.40;30.06
10712;BME280;5407;51.234;6.804;2023-04-10T12:33:28;101013.13;;;24.37;29.87
10712;BME280;5407;51.234;6.804;2023-04-10T12:35:55;101006.81;;;24.37;30.07
10712;BME280;5407;51.234;6.804;2023-04-10T12:38:38;101009.56;;;24.37;30.50
10712;BME280;5407;51.234;6.804;2023-04-10T12:41:07;101000.09;;;24.38;31.10
10712;BME280;5407;51.234;6.804;2023-04-10T12:43:37;100992.63;;;24.38;30.95
10712;BME280;5407;51.234;6.804;2023-04-10T12:46:05;100994.50;;;24.41;31.55
10712;BME280;5407;51.234;6.804;2023-04-10T12:48:33;100992.88;;;24.44;31.65
10712;BME280;5407;51.234;6.804;2023-04-10T12:51:00;100985.38;;;24.44;32.26
10712;BME280;5407;51.234;6.804;2023-04-10T12:53:27;100986.09;;;24.48;32.45
10712;BME280;5407;51.234;6.804;2023-04-10T12:56:02;100980.56;;;24.48;31.85
10712;BME280;5407;51.234;6.804;2023-04-10T12:58:31;100975.44;;;24.50;32.48
10712;BME280;5407;51.234;6.804;2023-04-10T13:01:02;100967.91;;;24.51;32.30
10712;BME280;5407;51.234;6.804;2023-04-10T13:03:29;100963.19;;;24.51;32.10
10712;BME280;5407;51.234;6.804;2023-04-10T13:05:56;100960.78;;;24.53;31.92
10712;BME280;5407;51.234;6.804;2023-04-10T13:08:23;100960.78;;;24.53;32.19
10712;BME280;5407;51.234;6.804;2023-04-10T13:10:50;100960.78;;;24.53;32.54
10712;BME280;5407;51.234;6.804;2023-04-10T13:13:17;100951.28;;;24.54;32.03
10712;BME280;5407;51.234;6.804;2023-04-10T13:15:45;100943.44;;;24.53;32.42
10712;BME280;5407;51.234;6.804;2023-04-10T13:18:13;100950.50;;;24.54;32.40
10712;BME280;5407;51.234;6.804;2023-04-10T13:20:40;100960.78;;;24.53;32.80
10712;BME280;5407;51.234;6.804;2023-04-10T13:23:07;100936.28;;;24.55;32.68